Abergavenny, United Kingdom
Current Conditions -  °F | °C
As of 9:50 AM on Friday 28 Nov 2014 (Local Time) from EGFF Reporting Station
Overcast Overcast  
Wind Chill: 50°   Ceiling: 1100
Heat Index: 50°   Visibility: 6mi
Dew Point: 46°   Wind: 17mph
Humidity: 87%   Direction: 90°E
Pressure: 29.56"   Gusts: NA
Location:  51.82°N, 3.02°W
Report Text: EGFF 280950Z AUTO 09015KT 9999 OVC011 10/08 Q1001
Loading
Personal Weather Stations






























Interactive Weather Map New forecast layout! Learn more

10-Day Weather Forecast

Advertisements
Track Severe Weather on mobile